createdAt,value
2018-07-04T00:02:02.032Z,15.00
2018-07-04T00:04:41.721Z,14.30
2018-07-04T00:07:21.396Z,15.27
2018-07-04T00:10:00.998Z,10.90
2018-07-04T00:12:40.749Z,10.10
2018-07-04T00:15:20.240Z,12.10
2018-07-04T00:17:59.766Z,12.40
2018-07-04T00:20:40.704Z,12.53
2018-07-04T00:23:20.534Z,15.60
2018-07-04T00:26:00.206Z,12.57
2018-07-04T00:28:39.950Z,13.27
2018-07-04T00:31:19.518Z,16.83
2018-07-04T00:33:59.198Z,13.53
2018-07-04T00:36:38.920Z,12.47
2018-07-04T00:39:18.730Z,15.20
2018-07-04T00:41:58.551Z,17.23
2018-07-04T00:44:38.226Z,14.37
2018-07-04T00:47:18.461Z,17.30
2018-07-04T00:49:58.115Z,16.20
2018-07-04T00:52:37.976Z,16.20
2018-07-04T00:55:18.303Z,20.30
2018-07-04T00:57:58.047Z,19.17
2018-07-04T01:00:37.703Z,14.67
2018-07-04T01:03:17.400Z,14.83
2018-07-04T01:05:57.038Z,16.73
2018-07-04T01:08:36.599Z,12.53
2018-07-04T01:11:16.234Z,15.20
2018-07-04T01:13:55.810Z,15.83
2018-07-04T01:16:35.459Z,14.97
2018-07-04T01:19:15.119Z,20.37
2018-07-04T01:21:54.660Z,17.30
2018-07-04T01:24:34.209Z,13.80
2018-07-04T01:27:13.889Z,14.60
2018-07-04T01:29:53.591Z,15.17
2018-07-04T01:32:33.331Z,18.17
2018-07-04T01:35:13.008Z,17.07
2018-07-04T01:37:52.693Z,16.17
2018-07-04T01:40:32.275Z,16.90
2018-07-04T01:43:11.878Z,14.63
2018-07-04T01:45:51.481Z,14.63
2018-07-04T01:48:31.176Z,13.93
2018-07-04T01:51:11.115Z,18.03
2018-07-04T01:53:50.801Z,14.57
2018-07-04T01:56:30.364Z,18.97
2018-07-04T01:59:10.689Z,16.07
2018-07-04T02:01:50.534Z,16.67
2018-07-04T02:04:30.182Z,18.23
2018-07-04T02:07:10.492Z,16.97
2018-07-04T02:09:50.425Z,16.13
2018-07-04T02:12:30.193Z,20.80
2018-07-04T02:15:09.943Z,17.27
2018-07-04T02:17:49.672Z,20.77
2018-07-04T02:20:29.620Z,18.27
2018-07-04T02:23:09.386Z,20.53
2018-07-04T02:25:49.092Z,18.23
2018-07-04T02:28:28.816Z,16.73
2018-07-04T02:31:08.516Z,18.47
2018-07-04T02:33:48.165Z,20.73
2018-07-04T02:36:27.805Z,19.83
2018-07-04T02:39:07.423Z,22.43
2018-07-04T02:41:47.064Z,20.37
2018-07-04T02:44:26.861Z,21.60
2018-07-04T02:47:09.177Z,20.23
2018-07-04T02:49:48.880Z,17.97
2018-07-04T02:52:29.345Z,19.53
2018-07-04T02:55:08.997Z,24.07
2018-07-04T02:57:48.733Z,19.23
2018-07-04T03:00:28.376Z,17.40
2018-07-04T03:03:07.977Z,22.13
2018-07-04T03:05:47.694Z,22.30
2018-07-04T03:08:27.407Z,18.73
2018-07-04T03:11:07.220Z,21.53
2018-07-04T03:13:47.700Z,18.33
2018-07-04T03:16:27.487Z,21.87
2018-07-04T03:19:07.302Z,17.77
2018-07-04T03:21:46.906Z,19.83
2018-07-04T03:24:26.698Z,17.27
2018-07-04T03:27:06.221Z,19.43
2018-07-04T03:29:45.896Z,18.23
2018-07-04T03:32:25.571Z,19.50
2018-07-04T03:35:05.273Z,23.33
2018-07-04T03:37:44.929Z,22.57
2018-07-04T03:40:24.590Z,22.87
2018-07-04T03:43:04.234Z,17.70
2018-07-04T03:45:43.948Z,17.70
2018-07-04T03:48:23.590Z,23.50
2018-07-04T03:51:03.259Z,23.97
2018-07-04T03:53:42.996Z,20.93
2018-07-04T03:56:22.640Z,26.73
2018-07-04T03:59:02.613Z,19.63
2018-07-04T04:01:42.197Z,20.63
2018-07-04T04:04:21.794Z,20.40
2018-07-04T04:07:01.567Z,21.47
2018-07-04T04:09:41.233Z,21.27
2018-07-04T04:12:20.908Z,19.33
2018-07-04T04:15:00.622Z,18.63
2018-07-04T04:17:40.398Z,24.10
2018-07-04T04:20:20.049Z,18.70
2018-07-04T04:23:00.388Z,18.87
2018-07-04T04:25:40.302Z,15.10
2018-07-04T04:28:20.053Z,21.07
2018-07-04T04:30:59.878Z,17.67
2018-07-04T04:33:39.529Z,17.10
2018-07-04T04:36:19.313Z,15.67
2018-07-04T04:38:59.012Z,16.90
2018-07-04T04:41:38.647Z,16.97
2018-07-04T04:44:18.175Z,18.17
2018-07-04T04:46:57.815Z,20.03
2018-07-04T04:49:37.386Z,22.03
2018-07-04T04:52:16.950Z,15.50
2018-07-04T04:54:56.606Z,17.47
2018-07-04T04:57:36.310Z,15.80
2018-07-04T05:00:15.999Z,20.40
2018-07-04T05:02:55.669Z,19.87
2018-07-04T05:05:36.054Z,17.23
2018-07-04T05:08:15.972Z,17.93
2018-07-04T05:10:55.653Z,17.17
2018-07-04T05:13:35.982Z,20.90
2018-07-04T05:16:16.351Z,18.53
2018-07-04T05:18:56.955Z,20.30
2018-07-04T05:21:36.703Z,20.33
2018-07-04T05:24:16.536Z,20.53
2018-07-04T05:26:56.312Z,15.40
2018-07-04T05:29:35.774Z,19.67
2018-07-04T05:32:16.155Z,18.80
2018-07-04T05:34:55.974Z,18.53
2018-07-04T05:37:35.774Z,21.73
2018-07-04T05:40:15.487Z,19.13
2018-07-04T05:42:55.184Z,15.73
2018-07-04T05:45:35.120Z,19.13
2018-07-04T05:48:14.722Z,19.70
2018-07-04T05:50:54.470Z,21.47
2018-07-04T05:53:34.330Z,17.43
2018-07-04T05:56:14.110Z,14.57
2018-07-04T05:58:53.870Z,21.07
2018-07-04T06:01:33.528Z,18.37
2018-07-04T06:04:13.330Z,18.97
2018-07-04T06:06:52.983Z,15.23
2018-07-04T06:09:32.625Z,15.90
2018-07-04T06:12:12.337Z,17.53
2018-07-04T06:14:52.091Z,15.53
2018-07-04T06:17:32.421Z,16.17
2018-07-04T06:20:12.339Z,19.80
2018-07-04T06:22:52.457Z,15.83
2018-07-04T06:25:31.995Z,20.17
2018-07-04T06:28:11.656Z,14.10
2018-07-04T06:30:51.368Z,16.90
2018-07-04T06:33:30.965Z,15.33
2018-07-04T06:36:10.660Z,12.57
2018-07-04T06:38:37.983Z,12.30
2018-07-04T06:41:05.350Z,12.80
2018-07-04T06:43:40.156Z,12.60
2018-07-04T06:46:07.456Z,15.23
2018-07-04T06:48:49.195Z,14.13
2018-07-04T06:51:18.823Z,14.63
2018-07-04T06:53:46.140Z,15.87
2018-07-04T06:56:13.779Z,15.77
2018-07-04T06:58:41.096Z,16.57
2018-07-04T07:01:09.646Z,14.20
2018-07-04T07:03:50.956Z,13.43
2018-07-04T07:06:31.393Z,16.50
2018-07-04T07:09:13.652Z,15.27
2018-07-04T07:11:53.657Z,17.40
2018-07-04T07:14:33.326Z,15.57
2018-07-04T07:17:13.120Z,17.93
2018-07-04T07:19:52.879Z,15.90
2018-07-04T07:22:32.645Z,17.07
2018-07-04T07:25:12.389Z,18.53
2018-07-04T07:27:52.160Z,15.50
2018-07-04T07:30:31.880Z,15.37
2018-07-04T07:33:12.364Z,12.73
2018-07-04T07:35:52.380Z,15.30
2018-07-04T07:38:32.597Z,13.13
2018-07-04T07:41:12.378Z,11.33
2018-07-04T07:43:52.214Z,12.67
2018-07-04T07:46:31.923Z,13.03
2018-07-04T07:49:11.593Z,14.53
2018-07-04T07:51:51.301Z,15.57
2018-07-04T07:54:31.035Z,13.70
2018-07-04T07:57:10.847Z,12.10
2018-07-04T07:59:50.544Z,10.50
2018-07-04T08:02:30.794Z,16.13
2018-07-04T08:05:10.942Z,11.13
2018-07-04T08:07:50.617Z,12.67
2018-07-04T08:10:30.309Z,10.63
2018-07-04T08:13:10.342Z,10.17
2018-07-04T08:15:49.849Z,12.00
2018-07-04T08:18:29.528Z,8.13
2018-07-04T08:21:09.206Z,12.73
2018-07-04T08:23:48.761Z,9.63
2018-07-04T08:26:28.298Z,12.30
2018-07-04T08:29:08.376Z,14.00
2018-07-04T08:31:48.319Z,7.30
2018-07-04T08:34:28.153Z,8.23
2018-07-04T08:37:07.794Z,7.50
2018-07-04T08:39:47.539Z,12.20
2018-07-04T08:42:27.220Z,9.43
2018-07-04T08:45:07.038Z,11.80
2018-07-04T08:47:46.779Z,7.27
2018-07-04T08:50:26.429Z,7.53
2018-07-04T08:53:06.128Z,9.53
2018-07-04T08:55:45.950Z,7.77
2018-07-04T08:58:25.554Z,9.87
2018-07-04T09:01:05.647Z,7.03
2018-07-04T09:03:45.574Z,9.83
2018-07-04T09:06:25.361Z,11.50
2018-07-04T09:09:05.091Z,5.90
2018-07-04T09:11:45.123Z,8.67
2018-07-04T09:14:25.641Z,10.20
2018-07-04T09:17:05.482Z,10.17
2018-07-04T09:19:45.242Z,11.07
2018-07-04T09:22:24.876Z,16.00
2018-07-04T09:25:04.728Z,9.13
2018-07-04T09:27:44.256Z,17.07
2018-07-04T09:30:23.985Z,10.43
2018-07-04T09:33:03.721Z,8.60
2018-07-04T09:35:45.847Z,7.37
2018-07-04T09:38:19.709Z,8.50
2018-07-04T09:40:59.486Z,11.97
2018-07-04T09:43:39.226Z,9.70
2018-07-04T09:46:19.204Z,9.00
2018-07-04T09:48:58.848Z,7.03
2018-07-04T09:51:38.742Z,9.60
2018-07-04T09:54:18.454Z,8.57
2018-07-04T09:56:58.085Z,7.60
2018-07-04T09:59:37.790Z,11.17
2018-07-04T10:02:17.511Z,11.60
2018-07-04T10:04:57.364Z,8.10
2018-07-04T10:07:31.151Z,6.80
2018-07-04T10:10:11.012Z,7.30
2018-07-04T10:12:44.903Z,6.30
2018-07-04T10:15:24.694Z,6.83
2018-07-04T10:18:04.435Z,7.30
2018-07-04T10:20:44.248Z,6.37
2018-07-04T10:23:24.454Z,11.73
2018-07-04T10:26:04.840Z,10.77
2018-07-04T10:28:44.660Z,8.93
2018-07-04T10:31:24.546Z,10.07
2018-07-04T10:34:04.157Z,9.63
2018-07-04T10:36:43.891Z,7.43
2018-07-04T10:39:24.035Z,9.93
2018-07-04T10:42:04.315Z,9.13
2018-07-04T10:44:44.050Z,9.87
2018-07-04T10:47:23.686Z,8.67
2018-07-04T10:50:03.297Z,8.30
2018-07-04T10:52:43.061Z,11.23
2018-07-04T10:55:22.902Z,10.13
2018-07-04T10:58:02.526Z,13.87
2018-07-04T11:00:42.228Z,7.17
2018-07-04T11:03:21.975Z,8.60
2018-07-04T11:06:01.809Z,8.30
2018-07-04T11:08:41.628Z,9.10
2018-07-04T11:11:21.579Z,10.63
2018-07-04T11:14:01.192Z,6.23
2018-07-04T11:16:40.925Z,9.83
2018-07-04T11:19:20.550Z,8.13
2018-07-04T11:22:00.975Z,8.13
2018-07-04T11:24:40.821Z,7.83
2018-07-04T11:27:20.598Z,9.97
2018-07-04T11:30:00.866Z,7.03
2018-07-04T11:32:40.686Z,9.90
2018-07-04T11:35:20.292Z,6.60
2018-07-04T11:37:59.885Z,8.53
2018-07-04T11:40:39.648Z,7.00
2018-07-04T11:43:19.464Z,9.90
2018-07-04T11:45:54.278Z,7.83
2018-07-04T11:48:21.741Z,7.00
2018-07-04T11:50:49.045Z,4.67
2018-07-04T11:53:16.499Z,7.60
2018-07-04T11:55:43.789Z,8.17
2018-07-04T11:58:11.208Z,6.37
2018-07-04T12:00:38.575Z,6.53
2018-07-04T12:03:18.643Z,8.97
2018-07-04T12:05:58.373Z,9.53
2018-07-04T12:08:27.118Z,8.77
2018-07-04T12:10:56.170Z,7.23
2018-07-04T12:13:26.177Z,11.73
2018-07-04T12:15:53.555Z,11.23
2018-07-04T12:18:21.584Z,7.80
2018-07-04T12:20:49.041Z,6.10
2018-07-04T12:23:16.442Z,7.63
2018-07-04T12:25:44.714Z,9.07
2018-07-04T12:28:12.057Z,7.27
2018-07-04T12:30:39.395Z,9.30
2018-07-04T12:33:06.699Z,8.57
2018-07-04T12:35:34.058Z,9.77
2018-07-04T12:38:01.403Z,6.80
2018-07-04T12:40:28.730Z,8.07
2018-07-04T12:42:56.057Z,7.67
2018-07-04T12:45:23.505Z,10.30
2018-07-04T12:47:50.855Z,9.47
2018-07-04T12:50:25.212Z,6.60
2018-07-04T12:52:52.563Z,9.07
2018-07-04T12:55:36.065Z,9.07
2018-07-04T12:58:16.633Z,9.60
2018-07-04T13:00:57.108Z,10.87
2018-07-04T13:03:36.988Z,7.10
2018-07-04T13:06:16.758Z,9.80
2018-07-04T13:08:56.529Z,6.63
2018-07-04T13:11:36.239Z,10.27
2018-07-04T13:14:16.703Z,6.90
2018-07-04T13:16:56.367Z,9.40
2018-07-04T13:19:36.405Z,9.50
2018-07-04T13:22:16.086Z,7.17
2018-07-04T13:24:55.759Z,7.93
2018-07-04T13:27:35.285Z,7.77
2018-07-04T13:30:14.847Z,5.50
2018-07-04T13:32:54.554Z,7.47
2018-07-04T13:35:34.042Z,6.47
2018-07-04T13:38:13.814Z,5.43
2018-07-04T13:40:53.512Z,5.67
2018-07-04T13:43:33.228Z,9.47
2018-07-04T13:46:12.933Z,6.27
2018-07-04T13:48:52.755Z,8.50
2018-07-04T13:51:32.370Z,6.70
2018-07-04T13:54:12.032Z,6.57
2018-07-04T13:56:51.661Z,8.73
2018-07-04T13:59:31.285Z,6.97
2018-07-04T14:02:11.156Z,8.07
2018-07-04T14:04:50.826Z,6.33
2018-07-04T14:07:30.570Z,7.30
2018-07-04T14:10:10.203Z,11.60
2018-07-04T14:12:49.826Z,9.73
2018-07-04T14:15:29.452Z,6.90
2018-07-04T14:18:09.281Z,9.13
2018-07-04T14:20:49.226Z,8.37
2018-07-04T14:23:28.933Z,10.03
2018-07-04T14:26:08.760Z,6.90
2018-07-04T14:28:48.539Z,9.57
2018-07-04T14:31:28.118Z,5.87
2018-07-04T14:34:07.710Z,7.97
2018-07-04T14:36:47.442Z,8.63
2018-07-04T14:39:27.425Z,7.37
2018-07-04T14:42:07.448Z,5.00
2018-07-04T14:44:47.615Z,10.67
2018-07-04T14:47:27.670Z,10.30
2018-07-04T14:50:07.761Z,7.43
2018-07-04T14:52:47.786Z,6.43
2018-07-04T14:55:27.858Z,6.10
2018-07-04T14:58:07.923Z,8.80
2018-07-04T15:00:47.945Z,7.67
2018-07-04T15:03:28.128Z,8.00
2018-07-04T15:06:08.217Z,6.60
2018-07-04T15:08:48.502Z,8.30
2018-07-04T15:11:28.425Z,6.40
2018-07-04T15:14:08.650Z,9.47
2018-07-04T15:16:48.642Z,8.20
2018-07-04T15:19:28.660Z,8.53
2018-07-04T15:22:08.803Z,6.57
2018-07-04T15:24:50.041Z,6.80
2018-07-04T15:27:29.990Z,8.80
2018-07-04T15:30:10.353Z,8.07
2018-07-04T15:32:50.736Z,7.83
2018-07-04T15:35:30.934Z,10.87
2018-07-04T15:38:11.148Z,8.67
2018-07-04T15:40:51.403Z,6.30
2018-07-04T15:43:31.088Z,10.37
2018-07-04T15:46:10.620Z,6.73
2018-07-04T15:48:50.280Z,7.10
2018-07-04T15:51:30.187Z,9.43
2018-07-04T15:54:09.878Z,14.33
2018-07-04T15:56:49.704Z,10.67
2018-07-04T15:59:29.512Z,11.10
2018-07-04T16:02:09.190Z,6.40
2018-07-04T16:04:43.026Z,7.40
2018-07-04T16:07:22.578Z,9.43
2018-07-04T16:10:02.270Z,8.97
2018-07-04T16:12:41.903Z,7.73
2018-07-04T16:15:21.547Z,9.80
2018-07-04T16:18:01.107Z,8.47
2018-07-04T16:20:40.687Z,10.33
2018-07-04T16:23:20.247Z,6.73
2018-07-04T16:26:00.022Z,7.47
2018-07-04T16:28:39.920Z,7.60
2018-07-04T16:31:19.645Z,8.57
2018-07-04T16:33:59.303Z,6.07
2018-07-04T16:36:38.964Z,8.17
2018-07-04T16:39:18.677Z,6.30
2018-07-04T16:41:58.433Z,8.57
2018-07-04T16:44:38.278Z,6.67
2018-07-04T16:47:18.104Z,7.90
2018-07-04T16:49:57.579Z,8.53
2018-07-04T16:52:37.990Z,9.60
2018-07-04T16:55:17.774Z,8.43
2018-07-04T16:57:57.395Z,7.60
2018-07-04T17:00:37.025Z,11.00
2018-07-04T17:03:10.629Z,6.50
2018-07-04T17:05:50.448Z,7.50
2018-07-04T17:08:30.152Z,6.43
2018-07-04T17:11:10.273Z,8.37
2018-07-04T17:13:49.968Z,7.67
2018-07-04T17:16:29.742Z,12.67
2018-07-04T17:19:09.642Z,6.57
2018-07-04T17:21:49.282Z,7.50
2018-07-04T17:24:29.077Z,8.13
2018-07-04T17:27:08.664Z,6.67
2018-07-04T17:29:48.351Z,9.97
2018-07-04T17:32:28.034Z,7.27
2018-07-04T17:35:07.898Z,8.67
2018-07-04T17:37:47.525Z,10.73
2018-07-04T17:40:27.260Z,7.73
2018-07-04T17:43:06.952Z,7.50
2018-07-04T17:45:46.649Z,7.97
2018-07-04T17:48:26.175Z,11.53
2018-07-04T17:51:05.823Z,9.23
2018-07-04T17:53:45.439Z,7.47
2018-07-04T17:56:25.106Z,11.13
2018-07-04T17:59:04.794Z,8.70
2018-07-04T18:01:45.199Z,11.23
2018-07-04T18:04:24.851Z,7.73
2018-07-04T18:07:04.497Z,11.63
2018-07-04T18:09:44.102Z,7.63
2018-07-04T18:12:23.962Z,10.60
2018-07-04T18:15:03.779Z,11.87
2018-07-04T18:17:43.453Z,9.37
2018-07-04T18:20:23.073Z,10.57
2018-07-04T18:23:02.666Z,7.40
2018-07-04T18:25:42.462Z,8.37
2018-07-04T18:28:22.264Z,10.70
2018-07-04T18:31:02.051Z,8.37
2018-07-04T18:33:42.531Z,11.70
2018-07-04T18:36:22.236Z,8.97
2018-07-04T18:39:01.979Z,8.33
2018-07-04T18:41:41.664Z,10.33
2018-07-04T18:44:21.538Z,9.03
2018-07-04T18:47:02.086Z,7.50
2018-07-04T18:49:41.724Z,10.23
2018-07-04T18:52:21.443Z,9.50
2018-07-04T18:55:01.184Z,6.77
2018-07-04T18:57:41.105Z,8.97
2018-07-04T19:00:20.749Z,7.37
2018-07-04T19:03:00.396Z,8.30
2018-07-04T19:05:40.034Z,11.87
2018-07-04T19:08:20.560Z,10.10
2018-07-04T19:11:00.447Z,11.80
2018-07-04T19:13:40.113Z,6.80
2018-07-04T19:16:19.823Z,18.03
2018-07-04T19:18:59.555Z,5.93
2018-07-04T19:21:39.223Z,5.57
2018-07-04T19:24:18.982Z,7.73
2018-07-04T19:26:58.694Z,10.53
2018-07-04T19:29:38.435Z,5.07
2018-07-04T19:32:18.087Z,12.87
2018-07-04T19:34:58.294Z,6.40
2018-07-04T19:37:38.089Z,6.90
2018-07-04T19:40:17.858Z,7.60
2018-07-04T19:42:57.727Z,7.23
2018-07-04T19:45:37.290Z,7.70
2018-07-04T19:48:16.977Z,6.17
2018-07-04T19:50:56.627Z,7.27
2018-07-04T19:53:36.427Z,6.20
2018-07-04T19:56:15.966Z,7.80
2018-07-04T19:58:55.657Z,6.20
2018-07-04T20:01:35.554Z,6.57
2018-07-04T20:04:15.256Z,7.53
2018-07-04T20:06:55.049Z,5.73
2018-07-04T20:09:34.654Z,6.43
2018-07-04T20:12:14.190Z,5.90
2018-07-04T20:14:53.819Z,6.67
2018-07-04T20:17:33.473Z,6.70
2018-07-04T20:20:13.097Z,6.20
2018-07-04T20:22:52.868Z,7.00
2018-07-04T20:25:32.651Z,8.63
2018-07-04T20:28:12.260Z,11.50
2018-07-04T20:30:51.825Z,4.90
2018-07-04T20:33:31.590Z,7.57
2018-07-04T20:36:11.266Z,8.17
2018-07-04T20:38:50.878Z,9.20
2018-07-04T20:41:30.540Z,8.47
2018-07-04T20:44:04.235Z,11.40
2018-07-04T20:46:44.594Z,6.00
2018-07-04T20:49:24.428Z,10.90
2018-07-04T20:52:04.229Z,9.43
2018-07-04T20:54:43.784Z,10.80
2018-07-04T20:57:23.484Z,7.90
2018-07-04T21:00:02.981Z,8.10
2018-07-04T21:02:43.384Z,9.43
2018-07-04T21:05:23.097Z,7.40
2018-07-04T21:08:02.756Z,9.63
2018-07-04T21:10:42.421Z,7.17
2018-07-04T21:13:22.470Z,12.30
2018-07-04T21:16:02.116Z,8.63
2018-07-04T21:18:41.904Z,7.00
2018-07-04T21:21:21.595Z,8.20
2018-07-04T21:24:01.239Z,6.07
2018-07-04T21:26:40.873Z,7.50
2018-07-04T21:29:20.478Z,5.20
2018-07-04T21:32:00.686Z,9.27
2018-07-04T21:34:41.245Z,8.33
2018-07-04T21:37:21.005Z,7.77
2018-07-04T21:40:00.793Z,5.80
2018-07-04T21:42:40.431Z,9.17
2018-07-04T21:45:20.205Z,8.63
2018-07-04T21:47:59.952Z,9.07
2018-07-04T21:50:39.554Z,6.20
2018-07-04T21:53:19.875Z,7.30
2018-07-04T21:55:59.668Z,7.10
2018-07-04T21:58:39.363Z,6.83
2018-07-04T22:01:19.135Z,11.90
2018-07-04T22:03:58.845Z,9.50
2018-07-04T22:06:38.401Z,7.73
2018-07-04T22:09:18.207Z,7.70
2018-07-04T22:11:58.010Z,8.40
2018-07-04T22:14:37.732Z,7.07
2018-07-04T22:17:17.346Z,8.97
2018-07-04T22:19:57.058Z,6.80
2018-07-04T22:22:36.615Z,7.63
2018-07-04T22:25:16.208Z,8.93
2018-07-04T22:27:55.836Z,11.80
2018-07-04T22:30:35.497Z,9.33
2018-07-04T22:33:15.174Z,4.77
2018-07-04T22:35:55.701Z,8.57
2018-07-04T22:38:35.642Z,7.23
2018-07-04T22:41:15.374Z,6.13
2018-07-04T22:43:55.009Z,5.80
2018-07-04T22:46:34.640Z,8.10
2018-07-04T22:49:14.401Z,5.67
2018-07-04T22:51:53.946Z,6.53
2018-07-04T22:54:33.518Z,6.83
2018-07-04T22:57:13.981Z,10.70
2018-07-04T22:59:53.799Z,7.87
2018-07-04T23:02:33.399Z,6.03
2018-07-04T23:05:12.946Z,9.23
2018-07-04T23:07:52.423Z,8.27
2018-07-04T23:10:32.099Z,5.47
2018-07-04T23:13:12.045Z,4.60
2018-07-04T23:15:51.699Z,4.60
2018-07-04T23:18:31.314Z,6.50
2018-07-04T23:21:11.070Z,7.80
2018-07-04T23:23:50.783Z,9.13
2018-07-04T23:26:30.958Z,5.97
2018-07-04T23:29:10.682Z,6.03
2018-07-04T23:31:50.221Z,6.67
2018-07-04T23:34:29.859Z,9.20
2018-07-04T23:37:10.326Z,9.27
2018-07-04T23:39:50.043Z,10.77
2018-07-04T23:42:29.678Z,6.60
2018-07-04T23:45:10.014Z,5.80
2018-07-04T23:47:49.852Z,7.50
2018-07-04T23:50:29.532Z,7.37
2018-07-04T23:53:09.307Z,6.43
2018-07-04T23:55:49.056Z,5.63
2018-07-04T23:58:28.718Z,6.53
